Time;durP1;ratioP1;P1;durP2;ratioP2;P2;SDS_P1;SDS_P2;PMS_P1;PMS_P2;Temp;Humidity;BMP_temperature;BMP_pressure;BME280_temperature;BME280_humidity;BME280_pressure;Samples;Min_cycle;Max_cycle;Signal;HPM_P1;HPM_P2
2023/12/06 00:01:29;;;;;;;41.00;27.57;;;-5.50;99.90;-6.80;100483;;;;584185;241;24036;-86
2023/12/06 00:03:57;;;;;;;40.23;25.13;;;-5.50;99.90;-6.80;100487;;;;583980;242;24058;-87
2023/12/06 00:06:25;;;;;;;46.00;27.77;;;-5.20;99.90;-6.80;100482;;;;583492;242;24069;-86
2023/12/06 00:08:54;;;;;;;39.20;26.27;;;-5.50;99.90;-6.80;100488;;;;583487;242;24119;-87
2023/12/06 00:11:22;;;;;;;39.70;28.20;;;-5.30;99.90;-6.90;100490;;;;583448;242;24053;-87
2023/12/06 00:13:51;;;;;;;42.60;27.50;;;-5.50;99.90;-6.80;100490;;;;583677;242;24110;-87
2023/12/06 00:16:19;;;;;;;44.63;27.77;;;-5.50;99.90;-6.80;100490;;;;583545;242;24106;-86
2023/12/06 00:18:50;;;;;;;43.93;28.27;;;-5.50;99.90;-6.80;100491;;;;584103;242;24032;-88
2023/12/06 00:21:15;;;;;;;50.30;28.37;;;-5.50;99.90;-6.80;100490;;;;583518;242;24150;-87
2023/12/06 00:23:46;;;;;;;48.83;29.97;;;-5.40;99.90;-6.80;100483;;;;583994;242;24058;-87
2023/12/06 00:26:12;;;;;;;44.87;27.43;;;-5.40;99.90;-6.70;100488;;;;580418;242;24081;-87
2023/12/06 00:28:45;;;;;;;53.87;31.60;;;-5.40;99.90;-6.70;100484;;;;584173;242;24061;-87
2023/12/06 00:31:13;;;;;;;44.50;27.67;;;-5.20;99.90;-6.70;100485;;;;584562;242;24089;-87
2023/12/06 00:33:41;;;;;;;51.43;30.47;;;-5.30;99.90;-6.60;100483;;;;584553;242;24035;-88
2023/12/06 00:36:09;;;;;;;47.40;29.00;;;-5.30;99.90;-6.60;100489;;;;584104;242;24046;-86
2023/12/06 00:38:37;;;;;;;52.80;30.70;;;-5.20;99.90;-6.60;100483;;;;583591;239;24125;-87
2023/12/06 00:41:05;;;;;;;42.30;26.10;;;-5.30;99.90;-6.50;100486;;;;585117;241;24157;-87
2023/12/06 00:43:37;;;;;;;43.80;28.73;;;-5.20;99.90;-6.50;100491;;;;584837;241;24077;-86
2023/12/06 00:46:03;;;;;;;38.80;23.33;;;-5.20;99.90;-6.40;100484;;;;584319;241;24108;-85
2023/12/06 00:48:31;;;;;;;40.70;27.07;;;-5.10;99.90;-6.40;100487;;;;584895;241;24046;-87
2023/12/06 00:51:01;;;;;;;41.77;27.20;;;-5.20;99.90;-6.40;100489;;;;584605;241;24061;-86
2023/12/06 00:53:28;;;;;;;44.90;28.27;;;-5.10;99.90;-6.40;100483;;;;584423;241;24053;-86
2023/12/06 00:55:57;;;;;;;44.43;28.00;;;-5.10;99.90;-6.40;100474;;;;584526;241;24059;-86
2023/12/06 00:58:25;;;;;;;44.42;26.60;;;-4.90;99.90;-6.30;100481;;;;579276;241;45867;-87
2023/12/06 01:00:53;;;;;;;40.07;21.40;;;-5.10;99.90;-6.30;100482;;;;584399;241;24051;-87
2023/12/06 01:03:21;;;;;;;42.43;25.33;;;-5.00;99.90;-6.30;100483;;;;584306;241;24066;-85
2023/12/06 01:05:49;;;;;;;39.63;23.77;;;-5.00;99.90;-6.30;100469;;;;584437;241;24070;-87
2023/12/06 01:08:17;;;;;;;43.90;26.70;;;-5.00;99.90;-6.30;100479;;;;583941;241;24061;-86
2023/12/06 01:10:45;;;;;;;40.03;26.83;;;-5.10;99.90;-6.30;100472;;;;584408;241;24062;-87
2023/12/06 01:13:17;;;;;;;42.93;27.40;;;-4.90;99.90;-6.20;100476;;;;584377;241;24047;-86
2023/12/06 01:15:42;;;;;;;42.30;28.00;;;-5.10;99.90;-6.20;100475;;;;593425;241;24061;-86
2023/12/06 01:18:09;;;;;;;43.03;23.90;;;-4.90;99.90;-6.30;100481;;;;584228;242;24070;-88
2023/12/06 01:20:38;;;;;;;42.17;26.07;;;-4.90;99.90;-6.20;100482;;;;583741;242;24115;-86
2023/12/06 01:23:09;;;;;;;39.83;25.23;;;-4.90;99.90;-6.20;100483;;;;583636;242;24146;-84
2023/12/06 01:25:35;;;;;;;37.67;24.97;;;-4.90;99.90;-6.20;100484;;;;583478;242;25114;-85
2023/12/06 01:28:08;;;;;;;38.27;25.77;;;-4.90;99.90;-6.20;100480;;;;584002;242;24128;-87
2023/12/06 01:30:33;;;;;;;39.33;24.43;;;-4.90;99.90;-6.20;100495;;;;583407;242;24114;-86
2023/12/06 01:33:01;;;;;;;39.67;25.60;;;-5.00;99.90;-6.20;100496;;;;583932;242;24063;-88
2023/12/06 01:35:28;;;;;;;43.27;25.20;;;-5.00;99.90;-6.20;100499;;;;583965;242;24141;-87
2023/12/06 01:37:56;;;;;;;41.67;26.53;;;-4.90;99.90;-6.20;100496;;;;583860;242;24062;-85
2023/12/06 01:40:25;;;;;;;39.23;26.63;;;-4.90;99.90;-6.30;100500;;;;584009;242;24058;-88
2023/12/06 01:42:53;;;;;;;42.47;26.47;;;-5.10;99.90;-6.20;100507;;;;583868;242;24055;-86
2023/12/06 01:45:21;;;;;;;41.13;28.17;;;-4.90;99.90;-6.20;100509;;;;583951;242;24042;-86
2023/12/06 01:47:52;;;;;;;41.00;25.80;;;-5.00;99.90;-6.20;100507;;;;583851;242;24039;-86
2023/12/06 01:50:18;;;;;;;41.87;25.57;;;-4.90;99.90;-6.20;100505;;;;583652;239;24062;-86
2023/12/06 01:52:46;;;;;;;42.10;26.43;;;-4.90;99.90;-6.20;100506;;;;584889;241;24063;-87
2023/12/06 01:55:14;;;;;;;37.03;23.03;;;-4.90;99.90;-6.20;100504;;;;584683;241;24060;-86
2023/12/06 01:57:43;;;;;;;42.73;25.13;;;-4.90;99.90;-6.20;100509;;;;584320;241;25092;-87
2023/12/06 02:00:14;;;;;;;41.23;26.67;;;-4.90;99.90;-6.20;100501;;;;580827;241;24051;-86
2023/12/06 02:02:38;;;;;;;42.93;25.90;;;-4.90;99.90;-6.30;100505;;;;583556;241;24092;-86
2023/12/06 02:05:07;;;;;;;39.37;24.33;;;-5.00;99.90;-6.30;100495;;;;584191;241;24075;-88
2023/12/06 02:07:35;;;;;;;38.60;24.93;;;-5.00;99.90;-6.30;100500;;;;584162;241;24089;-86
2023/12/06 02:10:03;;;;;;;41.40;25.73;;;-4.90;99.90;-6.40;100484;;;;583602;241;24093;-86
2023/12/06 02:12:31;;;;;;;42.43;26.13;;;-5.10;99.90;-6.40;100491;;;;584248;241;24066;-89
2023/12/06 02:15:00;;;;;;;41.40;25.50;;;-5.00;99.90;-6.50;100489;;;;584245;241;24079;-87
2023/12/06 02:17:32;;;;;;;42.07;26.77;;;-5.20;99.90;-6.50;100492;;;;584225;241;24076;-86
2023/12/06 02:19:59;;;;;;;42.50;27.00;;;-5.30;99.90;-6.60;100487;;;;583674;241;24156;-87
2023/12/06 02:22:28;;;;;;;40.77;24.70;;;-5.30;99.90;-6.60;100490;;;;584019;241;24113;-87
2023/12/06 02:24:53;;;;;;;41.03;27.70;;;-5.30;99.90;-6.70;100487;;;;583567;241;24072;-88
2023/12/06 02:27:24;;;;;;;39.17;25.67;;;-5.40;99.90;-6.70;100489;;;;583657;242;24124;-86
2023/12/06 02:29:52;;;;;;;40.17;25.07;;;-5.40;99.90;-6.70;100492;;;;583798;242;24084;-85
2023/12/06 02:32:18;;;;;;;44.13;26.67;;;-5.50;99.90;-6.80;100480;;;;583693;242;24057;-86
2023/12/06 02:34:46;;;;;;;44.27;27.40;;;-5.50;99.90;-6.90;100475;;;;584128;242;24072;-86
2023/12/06 02:37:18;;;;;;;40.90;26.00;;;-5.70;99.90;-7.00;100473;;;;584508;242;24048;-85
2023/12/06 02:39:43;;;;;;;44.47;28.07;;;-5.70;99.90;-7.00;100470;;;;584193;242;24084;-86
2023/12/06 02:42:11;;;;;;;44.63;28.53;;;-5.80;99.90;-7.10;100465;;;;584864;242;24074;-86
2023/12/06 02:44:41;;;;;;;43.97;28.23;;;;;-7.20;100471;;;;584850;242;24063;-85
2023/12/06 02:47:11;;;;;;;48.13;27.48;;;-5.90;99.90;-7.20;100459;;;;579982;242;45902;-87
2023/12/06 02:49:37;;;;;;;45.67;25.17;;;-6.00;99.90;-7.30;100460;;;;584537;242;24077;-85
2023/12/06 02:52:05;;;;;;;45.40;27.10;;;-5.90;99.90;-7.40;100460;;;;584218;242;24053;-87
2023/12/06 02:54:33;;;;;;;47.90;29.13;;;-6.00;99.90;-7.40;100471;;;;583682;242;24066;-87
2023/12/06 02:57:05;;;;;;;51.87;31.07;;;-6.20;99.90;-7.40;100469;;;;583646;242;24117;-85
2023/12/06 02:59:34;;;;;;;53.47;31.33;;;-6.10;99.90;-7.50;100471;;;;583492;242;24157;-86
2023/12/06 03:01:58;;;;;;;46.60;28.67;;;-6.10;99.90;-7.50;100457;;;;583940;241;24063;-87
2023/12/06 03:04:27;;;;;;;46.60;29.47;;;-6.10;99.90;-7.50;100465;;;;585042;241;24082;-88
2023/12/06 03:06:56;;;;;;;51.90;31.40;;;-6.20;99.90;-7.50;100463;;;;584472;241;24065;-88
2023/12/06 03:09:24;;;;;;;50.63;32.17;;;-6.30;99.90;-7.50;100461;;;;584515;241;24061;-87
2023/12/06 03:11:52;;;;;;;49.43;32.20;;;-6.20;99.90;-7.50;100463;;;;584302;241;24083;-86
2023/12/06 03:14:20;;;;;;;55.17;32.90;;;-6.20;99.90;-7.50;100465;;;;584527;241;24064;-87
2023/12/06 03:16:48;;;;;;;50.77;33.10;;;-6.20;99.90;-7.50;100470;;;;584428;241;24035;-87
2023/12/06 03:19:16;;;;;;;48.33;30.47;;;-5.90;99.90;-7.50;100476;;;;584480;241;24085;-86
2023/12/06 03:21:44;;;;;;;51.93;30.60;;;-6.10;99.90;-7.50;100476;;;;583888;241;24053;-85
2023/12/06 03:24:13;;;;;;;50.73;30.10;;;-6.10;99.90;-7.50;100477;;;;583888;241;24108;-87
2023/12/06 03:26:41;;;;;;;46.70;31.97;;;-6.20;99.90;-7.50;100482;;;;584289;241;24076;-88
2023/12/06 03:29:09;;;;;;;50.73;31.20;;;-6.20;99.90;-7.50;100476;;;;583950;241;24133;-87
2023/12/06 03:31:37;;;;;;;49.53;29.83;;;-6.40;99.90;-7.60;100488;;;;583746;241;25230;-86
2023/12/06 03:34:05;;;;;;;49.97;31.40;;;-6.30;99.90;-7.60;100480;;;;583915;241;24093;-86
2023/12/06 03:36:33;;;;;;;54.20;32.00;;;-6.30;99.90;-7.60;100491;;;;583790;241;24041;-86
2023/12/06 03:39:02;;;;;;;56.00;33.30;;;-6.30;99.90;-7.70;100472;;;;583776;242;24069;-86
2023/12/06 03:41:30;;;;;;;56.70;33.73;;;-6.30;99.90;-7.60;100487;;;;583458;242;24152;-86
2023/12/06 03:43:58;;;;;;;52.43;32.13;;;-6.20;99.90;-7.60;100499;;;;583953;242;25118;-86
2023/12/06 03:46:26;;;;;;;50.00;30.37;;;-6.40;99.90;-7.60;100491;;;;584093;242;24037;-87
2023/12/06 03:48:55;;;;;;;49.00;32.97;;;-6.30;99.90;-7.60;100487;;;;584142;242;24044;-88
2023/12/06 03:51:24;;;;;;;59.37;32.33;;;-6.30;99.90;-7.60;100496;;;;583725;242;24138;-87
2023/12/06 03:53:52;;;;;;;52.80;33.37;;;-6.20;99.90;-7.60;100504;;;;583674;242;24083;-87
2023/12/06 03:56:20;;;;;;;52.80;32.03;;;-6.30;99.90;-7.70;100494;;;;583676;242;24043;-87
2023/12/06 03:58:48;;;;;;;55.63;33.87;;;-6.10;99.90;-7.60;100503;;;;583698;242;24066;-86
2023/12/06 04:01:16;;;;;;;50.20;31.23;;;-6.10;99.90;-7.60;100510;;;;583563;242;24057;-87
2023/12/06 04:03:44;;;;;;;53.67;31.33;;;-6.30;99.90;-7.60;100501;;;;583675;242;24157;-88
2023/12/06 04:06:13;;;;;;;50.67;29.97;;;-6.20;99.90;-7.50;100505;;;;583532;242;24102;-87
2023/12/06 04:08:45;;;;;;;56.22;33.10;;;-6.20;99.90;-7.50;100510;;;;578585;242;34978;-88
2023/12/06 04:11:09;;;;;;;48.87;30.73;;;-6.10;99.90;-7.50;100515;;;;562392;250;24128;-86
2023/12/06 04:13:38;;;;;;;50.40;29.23;;;-6.10;99.90;-7.40;100512;;;;584077;241;24079;-88
2023/12/06 04:16:07;;;;;;;52.03;32.23;;;-6.10;99.90;-7.40;100510;;;;585555;241;24072;-87
2023/12/06 04:18:38;;;;;;;50.30;31.83;;;-6.00;99.90;-7.40;100503;;;;585106;241;24075;-87
2023/12/06 04:21:07;;;;;;;54.13;32.43;;;-5.80;99.90;-7.30;100502;;;;584230;241;24083;-86
2023/12/06 04:23:31;;;;;;;51.03;32.90;;;-6.00;99.90;-7.20;100507;;;;583582;241;24061;-87
2023/12/06 04:26:00;;;;;;;55.70;33.47;;;-5.90;99.90;-7.20;100491;;;;584485;241;24041;-86
2023/12/06 04:28:28;;;;;;;51.70;30.43;;;-5.80;99.90;-7.20;100505;;;;584462;241;24039;-88
2023/12/06 04:30:58;;;;;;;52.70;30.07;;;-5.80;99.90;-7.10;100502;;;;584395;241;24081;-87
2023/12/06 04:33:23;;;;;;;53.87;32.70;;;-5.80;99.90;-7.10;100502;;;;583793;241;24070;-87
2023/12/06 04:35:52;;;;;;;51.80;30.90;;;-5.70;99.90;-7.10;100507;;;;584205;241;24053;-87
2023/12/06 04:38:23;;;;;;;55.40;34.03;;;-5.80;99.90;-7.10;100501;;;;583539;241;24109;-87
2023/12/06 04:40:48;;;;;;;52.90;32.00;;;-5.70;99.90;-7.10;100514;;;;583984;241;24057;-87
2023/12/06 04:43:18;;;;;;;53.30;29.87;;;-5.70;99.90;-7.10;100512;;;;584429;241;24050;-88
2023/12/06 04:45:47;;;;;;;54.20;32.37;;;-5.70;99.90;-7.10;100507;;;;584298;241;24072;-86
2023/12/06 04:48:15;;;;;;;51.63;31.27;;;-5.60;99.90;-7.00;100513;;;;584229;241;24056;-86
2023/12/06 04:50:43;;;;;;;58.93;32.30;;;-5.70;99.90;-7.00;100515;;;;583772;242;24188;-86
2023/12/06 04:53:12;;;;;;;53.47;32.37;;;-5.60;99.90;-7.00;100519;;;;583541;242;25105;-87
2023/12/06 04:55:43;;;;;;;47.77;31.00;;;-5.60;99.90;-7.00;100520;;;;583734;242;24111;-87
2023/12/06 04:58:10;;;;;;;55.40;33.60;;;-5.40;99.90;-7.00;100510;;;;582757;242;24131;-86
2023/12/06 05:00:36;;;;;;;51.07;30.93;;;-5.60;99.90;-6.90;100507;;;;590334;242;24114;-86
2023/12/06 05:03:03;;;;;;;55.77;31.47;;;-5.60;99.90;-6.90;100504;;;;583384;242;24103;-88
2023/12/06 05:05:31;;;;;;;52.30;32.77;;;-5.60;99.90;-6.90;100503;;;;583454;242;24058;-86
2023/12/06 05:07:59;;;;;;;54.30;32.67;;;-5.50;99.90;-6.90;100502;;;;583780;242;24099;-87
2023/12/06 05:10:28;;;;;;;54.33;32.13;;;-5.50;99.90;-6.90;100507;;;;583404;242;24114;-87
2023/12/06 05:12:57;;;;;;;53.53;31.27;;;-5.50;99.90;-6.90;100497;;;;583658;242;24046;-86
2023/12/06 05:15:24;;;;;;;54.30;31.13;;;-5.50;99.90;-6.80;100502;;;;580325;242;24099;-86
2023/12/06 05:17:53;;;;;;;46.93;30.00;;;-5.40;99.90;-6.80;100501;;;;583956;242;24076;-89
2023/12/06 05:20:21;;;;;;;50.57;30.17;;;-5.50;99.90;-6.80;100509;;;;584092;242;24053;-86
2023/12/06 05:22:49;;;;;;;52.47;31.47;;;-5.40;99.90;-6.70;100508;;;;583784;242;24065;-86
2023/12/06 05:25:19;;;;;;;52.90;31.30;;;-5.50;99.90;-6.70;100501;;;;573530;242;24154;-78
2023/12/06 05:27:47;;;;;;;58.87;33.97;;;-5.30;99.90;-6.70;100499;;;;576538;246;24099;-79
2023/12/06 05:30:15;;;;;;;56.53;33.07;;;-5.30;99.90;-6.70;100508;;;;565370;249;24068;-78
2023/12/06 05:32:43;;;;;;;51.80;29.47;;;-5.00;99.90;-6.60;100514;;;;565172;249;24101;-79
2023/12/06 05:35:11;;;;;;;53.37;32.10;;;-5.40;99.90;-6.60;100512;;;;574470;248;24088;-79
2023/12/06 05:37:39;;;;;;;53.40;32.40;;;-5.30;99.90;-6.60;100516;;;;575846;247;24200;-81
2023/12/06 05:40:07;;;;;;;52.73;32.27;;;-5.30;99.90;-6.70;100508;;;;564777;249;24089;-79
2023/12/06 05:42:35;;;;;;;52.57;29.37;;;-5.30;99.90;-6.60;100516;;;;578458;246;24151;-80
2023/12/06 05:45:07;;;;;;;55.10;31.77;;;-5.40;99.90;-6.60;100514;;;;565468;249;24109;-79
2023/12/06 05:47:32;;;;;;;54.53;32.63;;;-5.30;99.90;-6.60;100506;;;;563129;249;24129;-78
2023/12/06 05:50:00;;;;;;;48.83;29.63;;;-5.30;99.90;-6.50;100518;;;;575826;247;24163;-78
2023/12/06 05:52:28;;;;;;;55.53;32.33;;;-5.30;99.90;-6.50;100512;;;;564892;249;24102;-78
2023/12/06 05:54:56;;;;;;;54.87;29.83;;;-5.20;99.90;-6.50;100505;;;;575631;247;24104;-80
2023/12/06 05:57:24;;;;;;;47.07;27.93;;;-5.20;99.90;-6.50;100510;;;;575557;247;24197;-79
2023/12/06 05:59:52;;;;;;;52.27;29.97;;;-5.30;99.90;-6.50;100511;;;;575742;247;24089;-80
2023/12/06 06:02:20;;;;;;;65.07;35.22;;;-5.10;99.90;-6.40;100510;;;;570290;247;35339;-80
2023/12/06 06:04:48;;;;;;;47.33;25.57;;;-5.20;99.90;-6.30;100522;;;;575544;248;24160;-79
2023/12/06 06:07:16;;;;;;;53.97;29.17;;;-4.90;99.90;-6.30;100509;;;;565347;249;24141;-78
2023/12/06 06:09:44;;;;;;;52.83;30.03;;;-5.00;99.90;-6.30;100524;;;;580427;245;24105;-82
2023/12/06 06:12:12;;;;;;;57.47;30.30;;;-5.10;99.90;-6.30;100522;;;;572589;246;24097;-82
2023/12/06 06:14:40;;;;;;;53.03;30.33;;;-5.00;99.90;-6.30;100525;;;;572488;246;24140;-82
2023/12/06 06:17:08;;;;;;;54.30;32.00;;;-5.00;99.90;-6.30;100523;;;;572696;246;24138;-81
2023/12/06 06:19:39;;;;;;;50.67;29.17;;;-1.80;99.90;-6.30;100528;;;;573035;246;24155;-82
2023/12/06 06:22:04;;;;;;;52.60;29.37;;;-5.10;99.90;-6.30;100535;;;;572266;246;24106;-82
2023/12/06 06:24:31;;;;;;;50.17;29.83;;;-4.70;99.90;-6.20;100519;;;;572657;246;24144;-82
2023/12/06 06:27:02;;;;;;;50.33;28.03;;;-4.90;99.90;-6.20;100528;;;;572435;246;24105;-80
2023/12/06 06:29:31;;;;;;;51.93;29.50;;;-4.80;99.90;-6.10;100518;;;;572708;246;24141;-82
2023/12/06 06:31:59;;;;;;;58.03;29.53;;;-4.80;99.90;-6.10;100527;;;;572300;246;24156;-81
2023/12/06 06:34:25;;;;;;;52.40;27.60;;;-4.90;99.90;-6.10;100516;;;;572484;246;24108;-78
2023/12/06 06:36:53;;;;;;;59.92;32.28;;;-4.80;99.90;-6.10;100521;;;;568112;245;35331;-79
2023/12/06 06:39:22;;;;;;;55.10;26.60;;;;;-6.10;100516;;;;574190;246;24066;-80
2023/12/06 06:41:55;;;;;;;59.05;33.90;;;-4.70;99.90;-6.00;100515;;;;568731;246;35406;-80
2023/12/06 06:44:20;;;;;;;52.20;26.63;;;-4.70;99.90;-6.00;100508;;;;579282;243;24078;-81
2023/12/06 06:46:48;;;;;;;51.60;24.03;;;-4.60;99.90;-5.90;100509;;;;579733;243;24094;-82
2023/12/06 06:49:17;;;;;;;57.10;29.73;;;-4.60;99.90;-5.90;100516;;;;580039;243;24072;-82
2023/12/06 06:51:45;;;;;;;55.73;30.77;;;-4.60;99.90;-5.90;100514;;;;580140;243;24080;-81
2023/12/06 06:54:13;;;;;;;56.53;30.40;;;-4.60;99.90;-5.90;100507;;;;579560;243;24134;-80
2023/12/06 06:56:41;;;;;;;58.33;30.23;;;-4.50;99.90;-5.90;100516;;;;579567;243;24063;-82
2023/12/06 06:59:09;;;;;;;54.63;28.50;;;-4.40;99.90;-5.80;100514;;;;579321;243;24092;-82
2023/12/06 07:01:37;;;;;;;67.60;33.70;;;-4.40;99.90;-5.70;100521;;;;579137;243;24096;-82
2023/12/06 07:04:05;;;;;;;57.80;31.03;;;-4.40;99.90;-5.70;100518;;;;579237;243;24102;-80
2023/12/06 07:06:33;;;;;;;52.70;27.47;;;-4.40;99.90;-5.70;100521;;;;579191;243;24160;-82
2023/12/06 07:09:01;;;;;;;49.47;27.33;;;-4.40;99.90;-5.80;100530;;;;579407;243;24123;-82
2023/12/06 07:11:29;;;;;;;51.43;28.67;;;-4.50;99.90;-5.80;100528;;;;579342;243;24102;-82
2023/12/06 07:13:57;;;;;;;51.87;27.83;;;-4.50;99.90;-5.70;100525;;;;578789;243;24084;-80
2023/12/06 07:16:24;;;;;;;50.70;27.47;;;-4.30;99.90;-5.80;100517;;;;579029;243;24082;-81
2023/12/06 07:18:53;;;;;;;56.63;28.67;;;-4.40;99.90;-5.70;100525;;;;578985;243;24149;-81
2023/12/06 07:21:22;;;;;;;55.37;28.70;;;-4.40;99.90;-5.70;100517;;;;579440;243;24181;-79
2023/12/06 07:23:51;;;;;;;49.30;27.20;;;-4.40;99.90;-5.70;100523;;;;579311;243;24193;-79
2023/12/06 07:26:19;;;;;;;51.10;27.17;;;-4.40;99.90;-5.70;100517;;;;579368;243;24165;-81
2023/12/06 07:28:51;;;;;;;52.87;27.57;;;-4.30;99.90;-5.60;100520;;;;578984;243;24079;-78
2023/12/06 07:31:15;;;;;;;50.97;29.00;;;-4.30;99.90;-5.60;100516;;;;578583;243;24096;-78
2023/12/06 07:33:44;;;;;;;53.00;26.93;;;-4.30;99.90;-5.60;100525;;;;579035;243;24085;-79
2023/12/06 07:36:13;;;;;;;50.23;28.10;;;-4.20;99.90;-5.60;100521;;;;578990;243;24065;-80
2023/12/06 07:38:45;;;;;;;48.07;26.10;;;-4.30;99.90;-5.60;100518;;;;578976;243;26216;-80
2023/12/06 07:41:11;;;;;;;57.13;28.23;;;-4.20;99.90;-5.60;100521;;;;576163;243;24134;-79
2023/12/06 07:43:37;;;;;;;58.07;29.87;;;-4.30;99.90;-5.60;100521;;;;578468;243;25167;-79
2023/12/06 07:46:05;;;;;;;55.27;30.10;;;-4.30;99.90;-5.60;100518;;;;578916;243;24049;-79
2023/12/06 07:48:36;;;;;;;60.13;30.20;;;-4.20;99.90;-5.60;100527;;;;579379;243;24100;-80
2023/12/06 07:51:00;;;;;;;57.33;30.23;;;-4.30;99.90;-5.50;100522;;;;580382;243;24087;-81
2023/12/06 07:53:28;;;;;;;53.03;27.23;;;-4.20;99.90;-5.40;100531;;;;580193;243;24072;-82
2023/12/06 07:55:58;;;;;;;50.17;27.37;;;-4.20;99.90;-5.40;100529;;;;579650;243;24072;-79
2023/12/06 07:58:24;;;;;;;49.63;28.10;;;-4.20;99.90;-5.40;100540;;;;579368;243;24125;-78
2023/12/06 08:00:53;;;;;;;44.13;23.80;;;-4.10;99.90;-5.30;100540;;;;575426;247;24092;-79
2023/12/06 08:03:24;;;;;;;51.13;27.93;;;-4.10;99.90;-5.30;100530;;;;577596;246;24085;-80
2023/12/06 08:05:49;;;;;;;50.80;27.00;;;-4.10;99.90;-5.30;100537;;;;568891;248;24159;-80
2023/12/06 08:08:17;;;;;;;52.60;26.17;;;-4.00;99.90;-5.20;100547;;;;588126;239;24084;-80
2023/12/06 08:10:46;;;;;;;46.07;25.63;;;-3.90;99.90;-5.20;100546;;;;579544;243;25068;-82
2023/12/06 08:13:15;;;;;;;51.37;27.10;;;-3.90;99.90;-5.20;100541;;;;579528;243;24077;-82
2023/12/06 08:15:43;;;;;;;43.77;26.27;;;-4.00;99.90;-5.20;100546;;;;579560;243;24049;-84
2023/12/06 08:18:11;;;;;;;48.40;28.27;;;-3.90;99.90;-5.20;100549;;;;579455;243;24064;-79
2023/12/06 08:20:39;;;;;;;50.60;27.10;;;-3.90;99.90;-5.10;100548;;;;579407;243;24073;-79
2023/12/06 08:23:08;;;;;;;44.80;25.27;;;-3.80;99.90;-5.10;100543;;;;579147;243;24072;-82
2023/12/06 08:25:35;;;;;;;46.67;25.73;;;-3.70;99.90;-5.10;100554;;;;579040;243;25094;-79
2023/12/06 08:28:04;;;;;;;56.87;28.27;;;-3.80;99.90;-5.00;100547;;;;579268;243;24065;-83
2023/12/06 08:30:33;;;;;;;49.57;27.03;;;-3.80;99.90;-5.00;100544;;;;579251;243;24128;-81
2023/12/06 08:33:02;;;;;;;50.63;24.97;;;-3.70;99.90;-5.00;100554;;;;579337;243;24052;-82
2023/12/06 08:35:30;;;;;;;45.93;25.07;;;-3.70;99.90;-4.90;100534;;;;579257;243;24032;-79
2023/12/06 08:37:59;;;;;;;51.30;25.07;;;-3.70;99.90;-4.90;100548;;;;579302;243;24034;-79
2023/12/06 08:40:28;;;;;;;48.17;24.90;;;-3.50;99.90;-4.80;100550;;;;579360;243;24061;-83
2023/12/06 08:42:55;;;;;;;41.00;23.13;;;-3.60;99.90;-4.80;100549;;;;579275;243;24116;-81
2023/12/06 08:45:23;;;;;;;48.43;27.53;;;-3.60;99.90;-4.80;100552;;;;579329;243;24037;-81
2023/12/06 08:47:51;;;;;;;43.77;23.27;;;-3.30;99.90;-4.70;100553;;;;579221;243;24079;-79
2023/12/06 08:50:19;;;;;;;38.80;21.20;;;-3.40;99.90;-4.70;100556;;;;579265;243;24066;-78
2023/12/06 08:52:48;;;;;;;44.10;26.03;;;-3.40;99.90;-4.70;100552;;;;578714;243;24048;-78
2023/12/06 08:55:16;;;;;;;40.90;23.87;;;-3.40;99.90;-4.60;100557;;;;578816;243;24051;-78
2023/12/06 08:57:43;;;;;;;34.17;20.43;;;-3.40;99.90;-4.60;100571;;;;579121;243;24067;-79
2023/12/06 09:00:16;;;;;;;42.77;24.27;;;-3.40;99.90;-4.60;100554;;;;579714;243;24095;-79
2023/12/06 09:02:40;;;;;;;42.13;23.60;;;-3.20;99.90;-4.60;100563;;;;579506;243;24063;-78
2023/12/06 09:05:11;;;;;;;49.10;27.63;;;-3.30;99.90;-4.60;100561;;;;580070;243;24043;-79
2023/12/06 09:07:36;;;;;;;33.43;15.40;;;-3.30;99.90;-4.50;100563;;;;579850;243;24136;-79
2023/12/06 09:10:04;;;;;;;40.50;22.93;;;-3.30;99.90;-4.60;100566;;;;579512;243;24127;-80
2023/12/06 09:12:32;;;;;;;48.10;28.80;;;-3.30;99.90;-4.50;100556;;;;576792;243;24055;-79
2023/12/06 09:15:03;;;;;;;50.43;25.07;;;-3.20;99.90;-4.50;100560;;;;579456;243;24166;-80
2023/12/06 09:17:28;;;;;;;38.63;24.03;;;-3.30;99.90;-4.40;100554;;;;579046;243;24067;-79
2023/12/06 09:19:56;;;;;;;44.67;25.63;;;-3.20;99.90;-4.40;100568;;;;579103;243;24107;-77
2023/12/06 09:22:25;;;;;;;37.17;18.27;;;-3.20;99.90;-4.40;100570;;;;579015;243;24053;-77
2023/12/06 09:24:53;;;;;;;48.20;22.50;;;-3.10;99.90;-4.40;100563;;;;579498;243;24120;-78
2023/12/06 09:27:22;;;;;;;40.77;22.37;;;-3.10;99.90;-4.40;100555;;;;579524;243;24069;-79
2023/12/06 09:29:49;;;;;;;46.73;21.77;;;-3.10;99.90;-4.40;100555;;;;579308;243;24059;-78
2023/12/06 09:32:29;;;;;;;36.80;19.00;;;-3.20;99.90;-4.40;100557;;;;579143;243;24182;-79
2023/12/06 09:35:01;;;;;;;44.13;23.83;;;-3.10;99.90;-4.30;100547;;;;579436;243;24070;-78
2023/12/06 09:37:28;;;;;;;42.67;21.40;;;-3.10;99.90;-4.30;100554;;;;578784;243;24091;-79
2023/12/06 09:39:57;;;;;;;46.10;21.80;;;-3.00;99.90;-4.20;100548;;;;578626;243;24047;-78
2023/12/06 09:42:25;;;;;;;40.50;20.20;;;-3.00;99.90;-4.20;100553;;;;578839;243;24113;-80
2023/12/06 09:44:55;;;;;;;39.33;19.63;;;-3.00;99.90;-4.20;100547;;;;578785;243;24089;-80
2023/12/06 09:47:21;;;;;;;31.87;15.67;;;-3.00;99.90;-4.20;100516;;;;578886;243;24055;-79
2023/12/06 09:49:50;;;;;;;30.97;19.07;;;-3.00;99.90;-4.20;100538;;;;578903;243;24064;-80
2023/12/06 09:52:22;;;;;;;39.43;21.90;;;-2.90;99.90;-4.20;100541;;;;576740;241;24082;-82
2023/12/06 09:54:50;;;;;;;38.13;22.03;;;-2.50;99.90;-4.10;100540;;;;579219;243;24144;-80
2023/12/06 09:57:21;;;;;;;38.70;20.57;;;-2.90;99.90;-4.10;100536;;;;578899;243;24082;-81
2023/12/06 09:59:46;;;;;;;50.40;24.73;;;-2.80;99.90;-4.10;100525;;;;579200;243;24070;-81
2023/12/06 10:02:14;;;;;;;47.87;25.63;;;-2.90;99.90;-4.00;100532;;;;579419;243;24036;-80
2023/12/06 10:04:47;;;;;;;39.10;20.17;;;-2.80;99.90;-4.00;100535;;;;579520;243;24085;-81
2023/12/06 10:07:12;;;;;;;44.87;22.17;;;-2.70;99.90;-4.00;100532;;;;579051;243;24046;-78
2023/12/06 10:09:40;;;;;;;43.13;21.17;;;-2.70;99.90;-3.90;100532;;;;579120;243;24057;-80
2023/12/06 10:12:15;;;;;;;39.10;20.83;;;-2.70;99.90;-3.90;100523;;;;578697;243;24097;-79
2023/12/06 10:14:40;;;;;;;46.57;23.40;;;-2.70;99.90;-3.90;100528;;;;580124;242;24100;-80
2023/12/06 10:17:13;;;;;;;48.93;28.73;;;-2.60;99.90;-3.90;100526;;;;574757;243;56780;-79
2023/12/06 10:19:38;;;;;;;39.60;20.90;;;-2.60;99.90;-3.80;100522;;;;579582;243;24051;-79
2023/12/06 10:22:09;;;;;;;39.13;21.10;;;-2.50;99.90;-3.70;100524;;;;579608;243;24053;-81
2023/12/06 10:24:34;;;;;;;41.77;20.70;;;-2.50;99.90;-3.70;100527;;;;579368;243;24048;-80
2023/12/06 10:27:05;;;;;;;42.53;22.03;;;-2.50;99.90;-3.70;100530;;;;579414;243;24071;-79
2023/12/06 10:29:33;;;;;;;44.93;25.00;;;-2.40;99.90;-3.70;100527;;;;577103;243;25172;-81
2023/12/06 10:32:02;;;;;;;43.57;22.93;;;-2.40;99.90;-3.60;100519;;;;579046;243;24057;-80
2023/12/06 10:34:29;;;;;;;41.67;23.63;;;-2.20;99.90;-3.50;100526;;;;579107;243;24103;-79
2023/12/06 10:37:00;;;;;;;42.47;22.47;;;-1.90;99.90;-3.40;100525;;;;579007;243;24056;-79
2023/12/06 10:39:25;;;;;;;38.47;21.90;;;-2.30;99.90;-3.40;100529;;;;578979;243;24185;-80
2023/12/06 10:41:53;;;;;;;60.47;28.70;;;-2.20;99.90;-3.40;100523;;;;578957;243;24086;-75
2023/12/06 10:44:21;;;;;;;46.53;24.73;;;-2.20;99.90;-3.40;100512;;;;579407;243;24077;-79
2023/12/06 10:46:49;;;;;;;39.57;21.20;;;-1.90;99.90;-3.40;100514;;;;579122;243;24195;-79
2023/12/06 10:49:20;;;;;;;43.23;22.00;;;-2.20;99.90;-3.40;100523;;;;578820;243;24030;-79
2023/12/06 10:51:49;;;;;;;38.83;20.93;;;-2.20;99.90;-3.40;100519;;;;587737;241;24057;-78
2023/12/06 10:54:14;;;;;;;41.45;26.50;;;-2.00;99.90;-3.40;100505;;;;573544;243;35015;-78
2023/12/06 10:56:42;;;;;;;28.70;15.90;;;-2.20;99.90;-3.40;100506;;;;579478;243;24098;-79
2023/12/06 10:59:10;;;;;;;42.93;22.10;;;-2.20;99.90;-3.40;100497;;;;579287;243;24049;-79